createdAt,value
2018-07-17T00:00:59.105Z,985.77
2018-07-17T00:02:08.715Z,985.74
2018-07-17T00:03:18.519Z,985.73
2018-07-17T00:04:28.037Z,985.74
2018-07-17T00:05:37.843Z,985.76
2018-07-17T00:06:47.650Z,985.77
2018-07-17T00:07:57.449Z,985.73
2018-07-17T00:09:07.243Z,985.76
2018-07-17T00:10:17.311Z,985.75
2018-07-17T00:11:27.106Z,985.75
2018-07-17T00:12:37.221Z,985.77
2018-07-17T00:13:47.282Z,985.76
2018-07-17T00:14:57.362Z,985.74
2018-07-17T00:16:07.169Z,985.74
2018-07-17T00:17:17.237Z,985.73
2018-07-17T00:18:27.028Z,985.7
2018-07-17T00:19:37.174Z,985.71
2018-07-17T00:20:47.264Z,985.72
2018-07-17T00:21:57.070Z,985.66
2018-07-17T00:23:06.883Z,985.68
2018-07-17T00:24:16.410Z,985.67
2018-07-17T00:25:26.540Z,985.64
2018-07-17T00:26:36.607Z,985.63
2018-07-17T00:27:46.397Z,985.67
2018-07-17T00:28:56.194Z,985.68
2018-07-17T00:30:06.287Z,985.69
2018-07-17T00:31:16.144Z,985.69
2018-07-17T00:32:25.950Z,985.69
2018-07-17T00:33:35.765Z,985.69
2018-07-17T00:34:45.310Z,985.7
2018-07-17T00:35:55.387Z,985.68
2018-07-17T00:37:05.488Z,985.71
2018-07-17T00:38:15.573Z,985.67
2018-07-17T00:39:25.391Z,985.7
2018-07-17T00:40:35.459Z,985.68
2018-07-17T00:41:45.583Z,985.71
2018-07-17T00:42:55.713Z,985.7
2018-07-17T00:44:05.511Z,985.75
2018-07-17T00:45:15.305Z,985.75
2018-07-17T00:46:25.126Z,985.82
2018-07-17T00:47:35.216Z,985.85
2018-07-17T00:48:45.350Z,985.85
2018-07-17T00:49:55.424Z,985.85
2018-07-17T00:51:05.221Z,985.85
2018-07-17T00:52:15.017Z,985.82
2018-07-17T00:53:24.808Z,985.79
2018-07-17T00:54:34.662Z,985.8
2018-07-17T00:55:44.791Z,985.81
2018-07-17T00:56:54.685Z,985.75
2018-07-17T00:58:04.547Z,985.81
2018-07-17T00:59:14.372Z,985.77
2018-07-17T01:00:24.514Z,985.81
2018-07-17T01:01:34.605Z,985.8
2018-07-17T01:02:44.670Z,985.79
2018-07-17T01:03:54.462Z,985.76
2018-07-17T01:05:04.272Z,985.82
2018-07-17T01:06:14.384Z,985.77
2018-07-17T01:07:24.192Z,985.77
2018-07-17T01:08:33.180Z,985.79
2018-07-17T01:09:42.975Z,985.73
2018-07-17T01:10:53.056Z,985.74
2018-07-17T01:12:02.645Z,985.75
2018-07-17T01:13:12.720Z,985.74
2018-07-17T01:14:22.844Z,985.75
2018-07-17T01:15:32.640Z,985.78
2018-07-17T01:16:42.721Z,985.76
2018-07-17T01:17:52.586Z,985.78
2018-07-17T01:19:02.388Z,985.8
2018-07-17T01:20:12.459Z,985.84
2018-07-17T01:21:22.249Z,985.84
2018-07-17T01:22:31.247Z,985.82
2018-07-17T01:23:41.329Z,985.87
2018-07-17T01:24:50.904Z,985.86
2018-07-17T01:26:00.962Z,985.85
2018-07-17T01:27:10.775Z,985.88
2018-07-17T01:28:20.589Z,985.87
2018-07-17T01:29:30.167Z,985.87
2018-07-17T01:30:40.239Z,985.89
2018-07-17T01:31:50.306Z,985.89
2018-07-17T01:33:00.113Z,985.89
2018-07-17T01:34:10.187Z,985.9
2018-07-17T01:35:20.317Z,985.94
2018-07-17T01:36:30.381Z,985.93
2018-07-17T01:37:40.187Z,985.89
2018-07-17T01:38:50.275Z,985.91
2018-07-17T01:40:00.331Z,985.91
2018-07-17T01:41:09.862Z,985.93
2018-07-17T01:42:19.917Z,985.93
2018-07-17T01:43:29.981Z,985.95
2018-07-17T01:44:40.073Z,985.97
2018-07-17T01:45:50.144Z,985.96
2018-07-17T01:47:00.257Z,986
2018-07-17T01:48:10.055Z,986.01
2018-07-17T01:49:20.130Z,986.03
2018-07-17T01:50:29.927Z,986.04
2018-07-17T01:51:40.000Z,986.05
2018-07-17T01:52:50.059Z,986.05
2018-07-17T01:54:00.134Z,986.08
2018-07-17T01:55:09.945Z,986.05
2018-07-17T01:56:19.747Z,986.04
2018-07-17T01:57:29.280Z,986.08
2018-07-17T01:58:39.142Z,986.05
2018-07-17T01:59:49.220Z,986.09
2018-07-17T02:00:59.014Z,986.07
2018-07-17T02:02:09.082Z,986.11
2018-07-17T02:03:19.158Z,986.12
2018-07-17T02:04:28.716Z,986.13
2018-07-17T02:05:38.783Z,986.16
2018-07-17T02:06:48.859Z,986.17
2018-07-17T02:07:58.934Z,986.16
2018-07-17T02:09:08.491Z,986.17
2018-07-17T02:10:18.335Z,986.21
2018-07-17T02:11:28.485Z,986.16
2018-07-17T02:12:38.284Z,986.16
2018-07-17T02:13:48.349Z,986.13
2018-07-17T02:14:58.420Z,986.13
2018-07-17T02:16:08.543Z,986.13
2018-07-17T02:17:18.619Z,986.16
2018-07-17T02:18:28.432Z,986.15
2018-07-17T02:19:38.565Z,986.14
2018-07-17T02:20:48.655Z,986.18
2018-07-17T02:21:58.769Z,986.18
2018-07-17T02:23:08.560Z,986.14
2018-07-17T02:24:18.623Z,986.1
2018-07-17T02:25:28.709Z,986.13
2018-07-17T02:26:38.499Z,986.1
2018-07-17T02:27:48.601Z,986.07
2018-07-17T02:28:58.686Z,986.1
2018-07-17T02:30:08.499Z,986.15
2018-07-17T02:31:17.778Z,986.13
2018-07-17T02:32:27.883Z,986.15
2018-07-17T02:33:38.016Z,986.16
2018-07-17T02:34:47.817Z,986.16
2018-07-17T02:35:57.638Z,986.14
2018-07-17T02:37:07.460Z,986.15
2018-07-17T02:38:17.544Z,986.12
2018-07-17T02:39:27.348Z,986.13
2018-07-17T02:40:37.427Z,986.13
2018-07-17T02:41:46.950Z,986.13
2018-07-17T02:42:56.747Z,986.17
2018-07-17T02:44:06.549Z,986.18
2018-07-17T02:45:16.400Z,986.14
2018-07-17T02:46:26.509Z,986.19
2018-07-17T02:47:36.592Z,986.19
2018-07-17T02:48:46.392Z,986.2
2018-07-17T02:49:56.455Z,986.22
2018-07-17T02:51:06.020Z,986.22
2018-07-17T02:52:15.828Z,986.24
2018-07-17T02:53:25.917Z,986.27
2018-07-17T02:54:35.733Z,986.24
2018-07-17T02:55:45.248Z,986.26
2018-07-17T02:56:55.354Z,986.23
2018-07-17T02:58:04.893Z,986.24
2018-07-17T02:59:14.712Z,986.19
2018-07-17T03:04:44.638Z,986.22
2018-07-17T03:05:54.733Z,986.23
2018-07-17T03:07:04.625Z,986.28
2018-07-17T03:08:15.038Z,986.27
2018-07-17T03:09:24.892Z,986.32
2018-07-17T03:10:34.441Z,986.28
2018-07-17T03:11:44.512Z,986.3
2018-07-17T03:12:54.069Z,986.28
2018-07-17T03:14:03.606Z,986.32
2018-07-17T03:15:13.443Z,986.34
2018-07-17T03:16:23.257Z,986.33
2018-07-17T03:17:33.359Z,986.33
2018-07-17T03:18:43.170Z,986.29
2018-07-17T03:19:52.984Z,986.3
2018-07-17T03:21:02.574Z,986.29
2018-07-17T03:22:12.393Z,986.26
2018-07-17T03:23:22.196Z,986.25
2018-07-17T03:24:32.359Z,986.27
2018-07-17T03:25:42.684Z,986.22
2018-07-17T03:26:52.605Z,986.27
2018-07-17T03:28:02.413Z,986.25
2018-07-17T03:29:12.223Z,986.26
2018-07-17T03:30:22.289Z,986.29
2018-07-17T03:31:32.367Z,986.27
2018-07-17T03:32:42.512Z,986.27
2018-07-17T03:33:52.294Z,986.26
2018-07-17T03:35:01.833Z,986.32
2018-07-17T03:36:11.653Z,986.33
2018-07-17T03:37:21.565Z,986.35
2018-07-17T03:38:31.710Z,986.34
2018-07-17T03:39:41.784Z,986.36
2018-07-17T03:40:51.587Z,986.34
2018-07-17T03:42:01.386Z,986.34
2018-07-17T03:43:11.188Z,986.33
2018-07-17T03:44:21.045Z,986.3
2018-07-17T03:45:30.857Z,986.31
2018-07-17T03:46:40.378Z,986.32
2018-07-17T03:47:50.181Z,986.32
2018-07-17T03:48:59.985Z,986.3
2018-07-17T03:50:09.843Z,986.32
2018-07-17T03:51:19.926Z,986.33
2018-07-17T03:52:30.008Z,986.33
2018-07-17T03:53:40.074Z,986.29
2018-07-17T03:54:50.136Z,986.32
2018-07-17T03:56:00.268Z,986.3
2018-07-17T03:57:10.353Z,986.31
2018-07-17T03:58:20.421Z,986.31
2018-07-17T03:59:30.495Z,986.32
2018-07-17T04:00:40.294Z,986.29
2018-07-17T04:01:50.148Z,986.27
2018-07-17T04:03:00.332Z,986.25
2018-07-17T04:04:10.545Z,986.27
2018-07-17T04:05:20.559Z,986.26
2018-07-17T04:06:30.360Z,986.26
2018-07-17T04:07:40.519Z,986.25
2018-07-17T04:08:50.317Z,986.29
2018-07-17T04:10:00.366Z,986.27
2018-07-17T04:11:10.414Z,986.28
2018-07-17T04:12:20.209Z,986.26
2018-07-17T04:13:30.108Z,986.23
2018-07-17T04:14:40.490Z,986.26
2018-07-17T04:15:50.553Z,986.31
2018-07-17T04:17:00.342Z,986.3
2018-07-17T04:18:10.156Z,986.27
2018-07-17T04:19:20.281Z,986.24
2018-07-17T04:20:30.372Z,986.27
2018-07-17T04:21:40.187Z,986.32
2018-07-17T04:22:49.452Z,986.33
2018-07-17T04:23:59.538Z,986.33
2018-07-17T04:25:08.847Z,986.37
2018-07-17T04:26:18.650Z,986.39
2018-07-17T04:27:28.729Z,986.37
2018-07-17T04:28:38.535Z,986.32
2018-07-17T04:29:48.348Z,986.28
2018-07-17T04:30:58.090Z,986.32
2018-07-17T04:32:07.904Z,986.33
2018-07-17T04:33:17.969Z,986.28
2018-07-17T04:34:28.043Z,986.31
2018-07-17T04:35:37.567Z,986.28
2018-07-17T04:36:47.144Z,986.3
2018-07-17T04:37:57.220Z,986.28
2018-07-17T04:39:06.740Z,986.29
2018-07-17T04:40:16.540Z,986.33
2018-07-17T04:41:26.340Z,986.34
2018-07-17T04:42:36.463Z,986.36
2018-07-17T04:43:46.552Z,986.36
2018-07-17T04:44:56.361Z,986.39
2018-07-17T04:46:06.172Z,986.4
2018-07-17T04:47:15.974Z,986.41
2018-07-17T04:48:26.100Z,986.45
2018-07-17T04:49:36.154Z,986.43
2018-07-17T04:50:45.666Z,986.47
2018-07-17T04:51:55.741Z,986.46
2018-07-17T04:53:05.560Z,986.48
2018-07-17T04:54:15.143Z,986.49
2018-07-17T04:55:24.683Z,986.54
2018-07-17T04:56:34.486Z,986.54
2018-07-17T04:57:44.549Z,986.59
2018-07-17T04:58:54.090Z,986.66
2018-07-17T05:00:03.960Z,986.81
2018-07-17T05:01:13.208Z,986.9
2018-07-17T05:02:23.294Z,986.89
2018-07-17T05:03:33.084Z,986.82
2018-07-17T05:04:43.144Z,986.67
2018-07-17T05:05:53.274Z,986.51
2018-07-17T05:07:03.537Z,986.53
2018-07-17T05:08:13.336Z,986.61
2018-07-17T05:09:23.399Z,986.65
2018-07-17T05:10:33.463Z,986.63
2018-07-17T05:11:43.593Z,986.64
2018-07-17T05:12:53.122Z,986.63
2018-07-17T05:14:03.299Z,986.63
2018-07-17T05:15:12.555Z,986.63
2018-07-17T05:16:22.379Z,986.72
2018-07-17T05:17:32.323Z,986.67
2018-07-17T05:18:42.401Z,986.66
2018-07-17T05:19:52.201Z,986.63
2018-07-17T05:21:02.272Z,986.65
2018-07-17T05:22:12.089Z,986.68
2018-07-17T05:23:22.199Z,986.6
2018-07-17T05:24:32.263Z,986.67
2018-07-17T05:25:42.058Z,986.66
2018-07-17T05:26:51.847Z,986.64
2018-07-17T05:28:01.656Z,986.64
2018-07-17T05:29:11.237Z,986.65
2018-07-17T05:30:20.770Z,986.65
2018-07-17T05:31:30.594Z,986.65
2018-07-17T05:32:40.400Z,986.64
2018-07-17T05:33:50.209Z,986.58
2018-07-17T05:35:00.353Z,986.61
2018-07-17T05:36:10.732Z,986.6
2018-07-17T05:37:20.859Z,986.58
2018-07-17T05:38:31.009Z,986.56
2018-07-17T05:39:41.110Z,986.6
2018-07-17T05:40:51.230Z,986.63
2018-07-17T05:42:01.293Z,986.58
2018-07-17T05:43:11.091Z,986.61
2018-07-17T05:44:20.873Z,986.59
2018-07-17T05:45:30.944Z,986.65
2018-07-17T05:46:40.793Z,986.64
2018-07-17T05:47:50.857Z,986.66
2018-07-17T05:49:00.675Z,986.66
2018-07-17T05:50:10.533Z,986.66
2018-07-17T05:51:20.617Z,986.69
2018-07-17T05:52:30.198Z,986.7
2018-07-17T05:53:40.274Z,986.68
2018-07-17T05:54:50.071Z,986.69
2018-07-17T05:55:59.885Z,986.69
2018-07-17T05:57:09.137Z,986.7
2018-07-17T05:58:19.259Z,986.68
2018-07-17T05:59:29.068Z,986.7
2018-07-17T06:00:39.142Z,986.66
2018-07-17T06:01:49.216Z,986.67
2018-07-17T06:02:59.281Z,986.64
2018-07-17T06:04:09.121Z,986.64
2018-07-17T06:05:19.192Z,986.64
2018-07-17T06:06:29.280Z,986.64
2018-07-17T06:07:39.346Z,986.68
2018-07-17T06:08:49.155Z,986.69
2018-07-17T06:09:59.010Z,986.71
2018-07-17T06:11:08.279Z,986.77
2018-07-17T06:12:18.072Z,986.82
2018-07-17T06:13:28.117Z,986.85
2018-07-17T06:14:37.921Z,986.87
2018-07-17T06:15:47.765Z,986.86
2018-07-17T06:16:57.637Z,986.83
2018-07-17T06:18:07.724Z,986.81
2018-07-17T06:19:17.795Z,986.82
2018-07-17T06:20:27.871Z,986.79
2018-07-17T06:21:37.997Z,986.78
2018-07-17T06:22:47.810Z,986.83
2018-07-17T06:23:57.887Z,986.8
2018-07-17T06:25:07.477Z,986.85
2018-07-17T06:26:17.866Z,986.88
2018-07-17T06:27:27.462Z,986.84
2018-07-17T06:28:37.264Z,986.79
2018-07-17T06:29:47.127Z,986.7
2018-07-17T06:30:56.659Z,986.7
2018-07-17T06:32:06.486Z,986.59
2018-07-17T06:33:16.344Z,986.57
2018-07-17T06:34:26.423Z,986.48
2018-07-17T06:35:36.203Z,986.49
2018-07-17T06:36:46.289Z,986.52
2018-07-17T06:37:56.368Z,986.54
2018-07-17T06:39:06.767Z,986.56
2018-07-17T06:40:16.794Z,986.61
2018-07-17T06:41:26.857Z,986.64
2018-07-17T06:42:36.129Z,986.65
2018-07-17T06:43:45.937Z,986.7
2018-07-17T06:44:56.068Z,986.7
2018-07-17T06:46:05.612Z,986.75
2018-07-17T06:47:15.691Z,986.71
2018-07-17T06:48:25.491Z,986.69
2018-07-17T06:49:35.569Z,986.72
2018-07-17T06:50:44.941Z,986.66
2018-07-17T06:51:55.067Z,986.6
2018-07-17T06:53:04.328Z,986.59
2018-07-17T06:54:14.412Z,986.61
2018-07-17T06:55:24.511Z,986.61
2018-07-17T06:56:34.385Z,986.56
2018-07-17T06:57:44.189Z,986.54
2018-07-17T06:58:54.240Z,986.52
2018-07-17T07:00:04.325Z,986.55
2018-07-17T07:01:14.127Z,986.49
2018-07-17T07:02:24.257Z,986.53
2018-07-17T07:03:33.783Z,986.55
2018-07-17T07:04:43.862Z,986.63
2018-07-17T07:05:53.983Z,986.6
2018-07-17T07:07:04.066Z,986.56
2018-07-17T07:08:13.918Z,986.62
2018-07-17T07:09:23.718Z,986.59
2018-07-17T07:10:33.520Z,986.53
2018-07-17T07:11:43.602Z,986.48
2018-07-17T07:12:53.415Z,986.51
2018-07-17T07:14:02.723Z,986.49
2018-07-17T07:15:12.528Z,986.49
2018-07-17T07:16:22.334Z,986.52
2018-07-17T07:17:32.137Z,986.53
2018-07-17T07:18:42.223Z,986.54
2018-07-17T07:19:52.075Z,986.55
2018-07-17T07:21:01.873Z,986.54
2018-07-17T07:22:11.678Z,986.54
2018-07-17T07:23:21.784Z,986.53
2018-07-17T07:24:31.907Z,986.51
2018-07-17T07:25:42.057Z,986.52
2018-07-17T07:26:52.155Z,986.54
2018-07-17T07:28:01.688Z,986.52
2018-07-17T07:29:11.487Z,986.57
2018-07-17T07:30:21.012Z,986.55
2018-07-17T07:31:30.879Z,986.54
2018-07-17T07:32:40.963Z,986.55
2018-07-17T07:33:50.777Z,986.52
2018-07-17T07:35:00.860Z,986.5
2018-07-17T07:36:10.683Z,986.52
2018-07-17T07:37:20.962Z,986.53
2018-07-17T07:38:31.425Z,986.56
2018-07-17T07:39:41.260Z,986.49
2018-07-17T07:40:51.337Z,986.49
2018-07-17T07:42:01.135Z,986.43
2018-07-17T07:43:11.007Z,986.42
2018-07-17T07:44:20.548Z,986.42
2018-07-17T07:45:30.685Z,986.41
2018-07-17T07:46:40.492Z,986.42
2018-07-17T07:47:50.595Z,986.42
2018-07-17T07:49:00.721Z,986.41
2018-07-17T07:50:10.960Z,986.42
2018-07-17T07:51:20.504Z,986.41
2018-07-17T07:52:30.588Z,986.44
2018-07-17T07:53:40.117Z,986.42
2018-07-17T07:54:50.227Z,986.41
2018-07-17T07:56:00.299Z,986.45
2018-07-17T07:57:10.103Z,986.45
2018-07-17T07:58:20.176Z,986.44
2018-07-17T07:59:29.985Z,986.42
2018-07-17T08:00:39.848Z,986.42
2018-07-17T08:01:49.913Z,986.42
2018-07-17T08:02:59.720Z,986.44
2018-07-17T08:04:09.527Z,986.42
2018-07-17T08:05:19.121Z,986.45
2018-07-17T08:06:29.265Z,986.44
2018-07-17T08:07:39.337Z,986.43
2018-07-17T08:08:49.412Z,986.42
2018-07-17T08:09:59.215Z,986.36
2018-07-17T08:11:08.755Z,986.35
2018-07-17T08:12:18.903Z,986.34
2018-07-17T08:13:28.842Z,986.37
2018-07-17T08:14:38.670Z,986.37
2018-07-17T08:15:48.471Z,986.36
2018-07-17T08:16:58.289Z,986.35
2018-07-17T08:18:08.164Z,986.32
2018-07-17T08:19:18.251Z,986.29
2018-07-17T08:20:28.131Z,986.3
2018-07-17T08:21:38.211Z,986.31
2018-07-17T08:22:47.734Z,986.29
2018-07-17T08:23:57.875Z,986.33
2018-07-17T08:25:07.980Z,986.34
2018-07-17T08:26:17.789Z,986.31
2018-07-17T08:27:27.851Z,986.26
2018-07-17T08:28:37.653Z,986.28
2018-07-17T08:29:47.303Z,986.28
2018-07-17T08:30:57.382Z,986.25
2018-07-17T08:32:07.465Z,986.22
2018-07-17T08:33:17.275Z,986.24
2018-07-17T08:34:27.347Z,986.23
2018-07-17T08:35:37.480Z,986.22
2018-07-17T08:36:47.765Z,986.27
2018-07-17T08:37:57.623Z,986.23
2018-07-17T08:39:07.226Z,986.28
2018-07-17T08:40:17.044Z,986.25
2018-07-17T08:41:27.187Z,986.29
2018-07-17T08:42:37.269Z,986.23
2018-07-17T08:43:47.065Z,986.29
2018-07-17T08:44:57.145Z,986.26
2018-07-17T08:46:06.681Z,986.24
2018-07-17T08:47:16.550Z,986.24
2018-07-17T08:48:26.634Z,986.25
2018-07-17T08:49:36.430Z,986.23
2018-07-17T08:50:46.519Z,986.18
2018-07-17T08:51:56.072Z,986.19
2018-07-17T08:53:06.175Z,986.17
2018-07-17T08:54:15.723Z,986.17
2018-07-17T08:55:25.587Z,986.18
2018-07-17T08:56:35.411Z,986.17
2018-07-17T08:57:45.479Z,986.17
2018-07-17T08:58:55.336Z,986.15
2018-07-17T09:00:05.148Z,986.14
2018-07-17T09:01:14.408Z,986.16
2018-07-17T09:02:24.493Z,986.15
2018-07-17T09:03:34.569Z,986.09
2018-07-17T09:04:44.444Z,986.1
2018-07-17T09:05:53.989Z,986.05
2018-07-17T09:07:03.338Z,986.07
2018-07-17T09:08:12.609Z,986.05
2018-07-17T09:09:22.695Z,986.06
2018-07-17T09:10:32.839Z,986.05
2018-07-17T09:11:42.922Z,986.07
2018-07-17T09:12:53.003Z,986.06
2018-07-17T09:14:02.728Z,986.06
2018-07-17T09:15:12.535Z,986.08
2018-07-17T09:16:22.394Z,986.04
2018-07-17T09:17:32.468Z,986.09
2018-07-17T09:18:41.723Z,986.05
2018-07-17T09:19:51.850Z,986.05
2018-07-17T09:21:01.658Z,986.05
2018-07-17T09:22:11.525Z,986.03
2018-07-17T09:23:21.335Z,986.07
2018-07-17T09:24:31.145Z,986.02
2018-07-17T09:25:41.228Z,985.99
2018-07-17T09:26:50.785Z,986.02
2018-07-17T09:28:00.654Z,986.02
2018-07-17T09:29:10.298Z,986.01
2018-07-17T09:30:20.102Z,986
2018-07-17T09:31:29.925Z,985.99
2018-07-17T09:32:39.724Z,986
2018-07-17T09:33:49.863Z,986.02
2018-07-17T09:34:59.936Z,986.04
2018-07-17T09:36:09.750Z,986.07
2018-07-17T09:37:19.586Z,985.99
2018-07-17T09:38:29.657Z,985.99
2018-07-17T09:39:39.785Z,985.99
2018-07-17T09:40:49.315Z,985.98
2018-07-17T09:41:59.405Z,985.98
2018-07-17T09:43:09.493Z,986
2018-07-17T09:44:19.068Z,985.99
2018-07-17T09:45:29.803Z,985.95
2018-07-17T09:46:39.880Z,985.96
2018-07-17T09:47:49.741Z,985.95
2018-07-17T09:48:59.552Z,985.98
2018-07-17T09:50:09.085Z,985.97
2018-07-17T09:51:18.949Z,985.96
2018-07-17T09:52:28.752Z,985.98
2018-07-17T09:53:38.831Z,985.95
2018-07-17T09:54:48.679Z,985.93
2018-07-17T09:55:58.771Z,985.94
2018-07-17T09:57:08.636Z,985.94
2018-07-17T09:58:18.453Z,985.92
2018-07-17T09:59:28.266Z,985.93
2018-07-17T10:00:38.076Z,985.95
2018-07-17T10:01:48.136Z,985.96
2018-07-17T10:02:58.274Z,985.96
2018-07-17T10:04:08.363Z,985.94
2018-07-17T10:05:18.438Z,985.91
2018-07-17T10:06:28.066Z,985.9
2018-07-17T10:07:38.297Z,985.9
2018-07-17T10:08:47.623Z,985.87
2018-07-17T10:09:57.700Z,985.88
2018-07-17T10:11:07.513Z,985.87
2018-07-17T10:12:17.329Z,985.86
2018-07-17T10:13:27.398Z,985.87
2018-07-17T10:14:37.599Z,985.82
2018-07-17T10:15:47.931Z,985.83
2018-07-17T10:16:57.471Z,985.87
2018-07-17T10:18:07.273Z,985.83
2018-07-17T10:19:17.080Z,985.84
2018-07-17T10:20:26.705Z,985.81
2018-07-17T10:21:36.088Z,985.84
2018-07-17T10:22:45.893Z,985.82
2018-07-17T10:23:55.158Z,985.79
2018-07-17T10:25:04.963Z,985.82
2018-07-17T10:26:15.155Z,985.79
2018-07-17T10:27:25.665Z,985.79
2018-07-17T10:28:35.750Z,985.81
2018-07-17T10:29:45.571Z,985.82
2018-07-17T10:30:55.659Z,985.77
2018-07-17T10:32:05.539Z,985.79
2018-07-17T10:33:15.853Z,985.76
2018-07-17T10:34:25.663Z,985.73
2018-07-17T10:35:35.747Z,985.7
2018-07-17T10:36:45.028Z,985.66
2018-07-17T10:37:54.631Z,985.69
2018-07-17T10:39:04.454Z,985.65
2018-07-17T10:40:14.539Z,985.65
2018-07-17T10:41:24.362Z,985.66
2018-07-17T10:42:34.559Z,985.62
2018-07-17T10:43:44.693Z,985.56
2018-07-17T10:44:54.823Z,985.61
2018-07-17T10:46:04.656Z,985.58
2018-07-17T10:47:14.472Z,985.51
2018-07-17T10:48:24.617Z,985.53
2018-07-17T10:49:34.458Z,985.5
2018-07-17T10:50:44.274Z,985.5
2018-07-17T10:51:54.092Z,985.51
2018-07-17T10:53:03.381Z,985.5
2018-07-17T10:54:13.270Z,985.47
2018-07-17T10:55:23.132Z,985.46
2018-07-17T10:56:32.393Z,985.46
2018-07-17T10:57:41.940Z,985.44
2018-07-17T10:58:52.017Z,985.41
2018-07-17T11:00:01.570Z,985.42
2018-07-17T11:01:11.160Z,985.38
2018-07-17T11:02:20.694Z,985.44
2018-07-17T11:03:30.792Z,985.39
2018-07-17T11:04:40.601Z,985.38
2018-07-17T11:05:50.132Z,985.31
2018-07-17T11:07:00.268Z,985.3
2018-07-17T11:08:09.807Z,985.34
2018-07-17T11:09:20.078Z,985.38
2018-07-17T11:10:29.886Z,985.39
2018-07-17T11:11:39.408Z,985.34
2018-07-17T11:12:49.519Z,985.36
2018-07-17T11:13:59.650Z,985.36
2018-07-17T11:15:09.491Z,985.35
2018-07-17T11:16:19.579Z,985.31
2018-07-17T11:17:29.654Z,985.31
2018-07-17T11:18:39.776Z,985.35
2018-07-17T11:19:49.601Z,985.29
2018-07-17T11:20:59.685Z,985.34
2018-07-17T11:22:09.791Z,985.32
2018-07-17T11:23:19.873Z,985.33
2018-07-17T11:24:29.458Z,985.28
2018-07-17T11:25:39.525Z,985.25
2018-07-17T11:26:49.638Z,985.27
2018-07-17T11:27:59.452Z,985.24
2018-07-17T11:29:09.548Z,985.24
2018-07-17T11:30:19.411Z,985.23
2018-07-17T11:31:29.504Z,985.21
2018-07-17T11:32:39.614Z,985.19
2018-07-17T11:33:49.145Z,985.21
2018-07-17T11:34:58.936Z,985.19
2018-07-17T11:36:08.815Z,985.18
2018-07-17T11:37:18.635Z,985.18
2018-07-17T11:38:28.448Z,985.13
2018-07-17T11:39:38.029Z,985.23
2018-07-17T11:40:48.118Z,985.2
2018-07-17T11:41:57.977Z,985.24
2018-07-17T11:43:08.076Z,985.26
2018-07-17T11:44:18.149Z,985.18
2018-07-17T11:45:27.962Z,985.2
2018-07-17T11:46:38.048Z,985.12
2018-07-17T11:47:48.222Z,985.11
2018-07-17T11:48:58.565Z,985.05
2018-07-17T11:50:08.104Z,985.05
2018-07-17T11:51:17.943Z,985.02
2018-07-17T11:52:27.801Z,984.97
2018-07-17T11:53:37.990Z,984.97
2018-07-17T11:54:48.076Z,984.96
2018-07-17T11:55:57.887Z,984.93
2018-07-17T11:57:07.443Z,984.86
2018-07-17T11:58:17.268Z,984.87
2018-07-17T11:59:26.744Z,984.86
2018-07-17T12:00:37.312Z,984.86
2018-07-17T12:01:47.401Z,984.83
2018-07-17T12:02:57.489Z,984.82
2018-07-17T12:04:07.040Z,984.87
2018-07-17T12:05:17.176Z,984.82
2018-07-17T12:06:27.286Z,984.88
2018-07-17T12:07:37.366Z,984.81
2018-07-17T12:08:47.454Z,984.84
2018-07-17T12:09:57.017Z,984.85
2018-07-17T12:11:06.919Z,984.83
2018-07-17T12:12:17.064Z,984.84
2018-07-17T12:13:27.168Z,984.83
2018-07-17T12:14:36.973Z,984.84
2018-07-17T12:15:47.060Z,984.85
2018-07-17T12:16:57.211Z,984.85
2018-07-17T12:18:07.293Z,984.86
2018-07-17T12:19:17.145Z,984.85
2018-07-17T12:20:27.087Z,984.84
2018-07-17T12:21:38.434Z,984.93
2018-07-17T12:22:47.748Z,984.89
2018-07-17T12:23:57.298Z,984.93
2018-07-17T12:25:06.836Z,984.88
2018-07-17T12:26:16.941Z,984.91
2018-07-17T12:27:26.826Z,984.81
2018-07-17T12:28:36.680Z,984.74
2018-07-17T12:29:46.498Z,984.82
2018-07-17T12:30:56.321Z,984.81
2018-07-17T12:32:06.135Z,984.79
2018-07-17T12:33:16.229Z,984.76
2018-07-17T12:34:26.370Z,984.74
2018-07-17T12:35:36.452Z,984.75
2018-07-17T12:36:46.265Z,984.7
2018-07-17T12:37:56.089Z,984.72
2018-07-17T12:39:05.901Z,984.77
2018-07-17T12:40:16.012Z,984.72
2018-07-17T12:41:25.843Z,984.72
2018-07-17T12:42:35.669Z,984.75
2018-07-17T12:43:45.217Z,984.72
2018-07-17T12:44:54.483Z,984.59
2018-07-17T12:46:04.357Z,984.68
2018-07-17T12:47:14.179Z,984.69
2018-07-17T12:48:24.300Z,984.64
2018-07-17T12:49:34.122Z,984.63
2018-07-17T12:50:44.271Z,984.63
2018-07-17T12:51:54.421Z,984.62
2018-07-17T12:53:03.970Z,984.61
2018-07-17T12:54:14.046Z,984.59
2018-07-17T12:55:24.133Z,984.42
2018-07-17T12:56:33.949Z,984.52
2018-07-17T12:57:44.114Z,984.5
2018-07-17T12:58:54.000Z,984.52
2018-07-17T13:00:04.076Z,984.44
2018-07-17T13:01:14.168Z,984.57
2018-07-17T13:02:24.276Z,984.5
2018-07-17T13:03:34.455Z,984.52
2018-07-17T13:04:44.537Z,984.45
2018-07-17T13:05:54.645Z,984.43
2018-07-17T13:07:04.459Z,984.43
2018-07-17T13:08:14.291Z,984.41
2018-07-17T13:09:24.533Z,984.4
2018-07-17T13:10:34.134Z,984.4
2018-07-17T13:11:44.245Z,984.37
2018-07-17T13:12:54.334Z,984.45
2018-07-17T13:14:04.420Z,984.42
2018-07-17T13:15:14.591Z,984.49
2018-07-17T13:16:24.679Z,984.42
2018-07-17T13:17:34.903Z,984.32
2018-07-17T13:18:45.297Z,984.35
2018-07-17T13:19:55.414Z,984.33
2018-07-17T13:21:05.012Z,984.28
2018-07-17T13:22:14.558Z,984.24
2018-07-17T13:23:24.365Z,984.21
2018-07-17T13:24:34.466Z,984.3
2018-07-17T13:25:44.554Z,984.23
2018-07-17T13:26:54.421Z,984.2
2018-07-17T13:28:03.969Z,984.22
2018-07-17T13:29:13.788Z,984.16
2018-07-17T13:30:23.844Z,984.12
2018-07-17T13:31:33.945Z,984.11
2018-07-17T13:32:44.082Z,984.1
2018-07-17T13:33:53.631Z,984.14
2018-07-17T13:35:03.186Z,984.12
2018-07-17T13:36:12.994Z,984.12
2018-07-17T13:37:22.811Z,984.12
2018-07-17T13:38:32.958Z,984.1
2018-07-17T13:39:42.785Z,984.05
2018-07-17T13:40:52.073Z,984.02
2018-07-17T13:42:01.621Z,983.99
2018-07-17T13:43:11.461Z,983.97
2018-07-17T13:44:21.078Z,983.93
2018-07-17T13:45:30.878Z,983.87
2018-07-17T13:46:40.714Z,983.85
2018-07-17T13:47:50.812Z,983.88
2018-07-17T13:49:00.903Z,983.87
2018-07-17T13:50:10.894Z,983.88
2018-07-17T13:51:21.049Z,983.9
2018-07-17T13:52:30.331Z,983.87
2018-07-17T13:53:40.422Z,983.88
2018-07-17T13:54:50.502Z,983.89
2018-07-17T13:56:00.102Z,983.89
2018-07-17T13:57:10.041Z,983.88
2018-07-17T13:58:19.865Z,983.88
2018-07-17T13:59:29.959Z,983.85
2018-07-17T14:00:40.042Z,983.84
2018-07-17T14:01:49.897Z,983.91
2018-07-17T14:03:00.025Z,983.87
2018-07-17T14:04:09.567Z,983.85
2018-07-17T14:05:19.380Z,983.83
2018-07-17T14:06:29.517Z,983.84
2018-07-17T14:07:39.655Z,983.87
2018-07-17T14:08:49.472Z,983.88
2018-07-17T14:09:59.008Z,983.84
2018-07-17T14:11:09.098Z,983.87
2018-07-17T14:12:18.923Z,983.86
2018-07-17T14:13:28.988Z,983.82
2018-07-17T14:14:38.260Z,983.94
2018-07-17T14:15:48.333Z,983.91
2018-07-17T14:16:58.424Z,983.87
2018-07-17T14:18:08.247Z,983.83
2018-07-17T14:19:17.837Z,983.83
2018-07-17T14:20:27.390Z,983.83
2018-07-17T14:21:37.201Z,983.85
2018-07-17T14:22:46.745Z,983.89
2018-07-17T14:23:56.837Z,983.92
2018-07-17T14:25:06.711Z,983.9
2018-07-17T14:26:16.789Z,983.97
2018-07-17T14:27:26.880Z,983.97
2018-07-17T14:28:36.696Z,983.92
2018-07-17T14:29:46.840Z,984.14
2018-07-17T14:30:56.990Z,984.36
2018-07-17T14:32:06.890Z,984.48
2018-07-17T14:33:16.724Z,984.52
2018-07-17T14:34:26.542Z,984.42
2018-07-17T14:35:36.073Z,984.33
2018-07-17T14:36:45.987Z,984.31
2018-07-17T14:37:55.811Z,984.21
2018-07-17T14:39:06.604Z,984.03